Mountain View, Oklahoma
Current Conditions -  °F | °C
As of 3:53 AM on Sunday 26 Oct 2014 (Local Time) from KHBR Reporting Station
Clear Clear  
Wind Chill: 60°   Ceiling: Unl
Heat Index: 60°   Visibility: 10mi
Dew Point: 51°   Wind: 8mph
Humidity: 72%   Direction: 200°SSW
Pressure: 29.95"   Gusts: NA
Location:  35.1°N, 98.75°W
Report Text: KHBR 260853Z AUTO 20007KT 10SM CLR 16/11 A2995 RMK AO2 SLP125 T01560106 58012
Loading
Personal Weather Stations






























Interactive Weather Map
Tropical Storm Tracking
New forecast layout! Learn more

10-Day Weather Forecast

Advertisements
Track Severe Weather on mobile